createdAt,value
2018-02-19T00:00:19.583Z,1018.02
2018-02-19T00:01:19.532Z,1018.07
2018-02-19T00:02:19.483Z,1018.01
2018-02-19T00:03:19.435Z,1018.01
2018-02-19T00:04:19.390Z,1017.96
2018-02-19T00:05:19.378Z,1017.93
2018-02-19T00:06:19.300Z,1017.93
2018-02-19T00:07:19.260Z,1017.91
2018-02-19T00:08:19.211Z,1017.85
2018-02-19T00:09:19.167Z,1017.86
2018-02-19T00:10:19.122Z,1017.86
2018-02-19T00:11:19.109Z,1017.83
2018-02-19T00:12:19.028Z,1017.89
2018-02-19T00:13:18.990Z,1017.81
2018-02-19T00:14:18.945Z,1017.87
2018-02-19T00:15:18.898Z,1017.86
2018-02-19T00:16:18.853Z,1017.88
2018-02-19T00:17:18.826Z,1017.82
2018-02-19T00:18:18.765Z,1017.85
2018-02-19T00:19:18.712Z,1017.84
2018-02-19T00:20:18.665Z,1017.87
2018-02-19T00:21:18.628Z,1017.89
2018-02-19T00:22:18.584Z,1017.82
2018-02-19T00:23:18.557Z,1017.81
2018-02-19T00:24:18.488Z,1017.84
2018-02-19T00:25:18.446Z,1017.81
2018-02-19T00:26:18.393Z,1017.75
2018-02-19T00:27:18.350Z,1017.74
2018-02-19T00:28:18.308Z,1017.75
2018-02-19T00:29:18.289Z,1017.72
2018-02-19T00:30:18.209Z,1017.66
2018-02-19T00:31:18.174Z,1017.69
2018-02-19T00:32:18.118Z,1017.70
2018-02-19T00:33:18.075Z,1017.67
2018-02-19T00:34:18.034Z,1017.71
2018-02-19T00:35:18.017Z,1017.71
2018-02-19T00:36:17.950Z,1017.71
2018-02-19T00:37:17.894Z,1017.70
2018-02-19T00:38:17.854Z,1017.74
2018-02-19T00:39:17.802Z,1017.70
2018-02-19T00:40:17.773Z,1017.70
2018-02-19T00:41:17.750Z,1017.65
2018-02-19T00:42:17.673Z,1017.65
2018-02-19T00:43:17.627Z,1017.63
2018-02-19T00:44:17.584Z,1017.65
2018-02-19T00:45:17.531Z,1017.58
2018-02-19T00:46:17.497Z,1017.62
2018-02-19T00:47:17.471Z,1017.57
2018-02-19T00:48:17.395Z,1017.60
2018-02-19T00:49:17.375Z,1017.56
2018-02-19T00:50:17.301Z,1017.56
2018-02-19T00:51:17.265Z,1017.54
2018-02-19T00:52:17.214Z,1017.50
2018-02-19T00:53:17.202Z,1017.50
2018-02-19T00:54:17.119Z,1017.52
2018-02-19T00:55:17.082Z,1017.48
2018-02-19T00:56:17.037Z,1017.46
2018-02-19T00:57:16.991Z,1017.44
2018-02-19T00:58:16.945Z,1017.48
2018-02-19T00:59:16.921Z,1017.44
2018-02-19T01:00:16.853Z,1017.47
2018-02-19T01:01:16.803Z,1017.39
2018-02-19T01:02:16.758Z,1017.39
2018-02-19T01:03:16.715Z,1017.33
2018-02-19T01:04:16.664Z,1017.38
2018-02-19T01:05:16.648Z,1017.35
2018-02-19T01:06:16.579Z,1017.35
2018-02-19T01:07:16.536Z,1017.34
2018-02-19T01:08:16.482Z,1017.37
2018-02-19T01:09:16.439Z,1017.34
2018-02-19T01:10:16.401Z,1017.35
2018-02-19T01:11:16.376Z,1017.36
2018-02-19T01:12:16.302Z,1017.29
2018-02-19T01:13:16.265Z,1017.34
2018-02-19T01:14:16.222Z,1017.31
2018-02-19T01:15:16.174Z,1017.30
2018-02-19T01:16:16.126Z,1017.35
2018-02-19T01:17:16.105Z,1017.33
2018-02-19T01:18:16.030Z,1017.32
2018-02-19T01:19:15.986Z,1017.33
2018-02-19T01:20:15.946Z,1017.36
2018-02-19T01:21:15.895Z,1017.38
2018-02-19T01:22:15.866Z,1017.36
2018-02-19T01:23:15.835Z,1017.34
2018-02-19T01:24:15.763Z,1017.37
2018-02-19T01:25:15.710Z,1017.36
2018-02-19T01:26:15.673Z,1017.35
2018-02-19T01:27:15.629Z,1017.33
2018-02-19T01:28:15.575Z,1017.31
2018-02-19T01:29:15.563Z,1017.29
2018-02-19T01:30:15.484Z,1017.28
2018-02-19T01:31:15.449Z,1017.27
2018-02-19T01:32:15.400Z,1017.27
2018-02-19T01:33:15.401Z,1017.29
2018-02-19T01:34:15.305Z,1017.23
2018-02-19T01:35:15.289Z,1017.22
2018-02-19T01:36:15.213Z,1017.21
2018-02-19T01:37:15.177Z,1017.19
2018-02-19T01:38:15.125Z,1017.13
2018-02-19T01:39:15.079Z,1017.11
2018-02-19T01:40:15.041Z,1017.13
2018-02-19T01:41:15.019Z,1017.14
2018-02-19T01:42:14.940Z,1017.10
2018-02-19T01:43:14.894Z,1017.09
2018-02-19T01:44:14.855Z,1017.10
2018-02-19T01:45:14.801Z,1017.07
2018-02-19T01:46:14.755Z,1017.10
2018-02-19T01:47:14.739Z,1017.04
2018-02-19T01:48:14.673Z,1017.09
2018-02-19T01:49:14.628Z,1017.03
2018-02-19T01:50:14.582Z,1016.96
2018-02-19T01:51:14.538Z,1016.98
2018-02-19T01:52:14.492Z,1016.98
2018-02-19T01:53:14.470Z,1016.92
2018-02-19T01:54:14.401Z,1016.94
2018-02-19T01:55:14.347Z,1016.93
2018-02-19T01:56:14.303Z,1016.90
2018-02-19T01:57:14.253Z,1016.91
2018-02-19T01:58:14.234Z,1016.89
2018-02-19T01:59:14.162Z,1016.87
2018-02-19T02:00:14.124Z,1016.86
2018-02-19T02:01:14.072Z,1016.87
2018-02-19T02:02:14.034Z,1016.88
2018-02-19T02:03:14.004Z,1016.84
2018-02-19T02:04:13.940Z,1016.77
2018-02-19T02:05:13.891Z,1016.84
2018-02-19T02:06:13.849Z,1016.82
2018-02-19T02:07:13.802Z,1016.88
2018-02-19T02:08:13.773Z,1016.86
2018-02-19T02:09:13.710Z,1016.84
2018-02-19T02:10:13.672Z,1016.86
2018-02-19T02:11:13.623Z,1016.91
2018-02-19T02:12:13.573Z,1016.85
2018-02-19T02:13:13.553Z,1016.87
2018-02-19T02:14:13.486Z,1016.88
2018-02-19T02:15:13.434Z,1016.85
2018-02-19T02:16:13.392Z,1016.80
2018-02-19T02:17:13.351Z,1016.80
2018-02-19T02:18:13.300Z,1016.79
2018-02-19T02:19:13.278Z,1016.79
2018-02-19T02:20:13.212Z,1016.78
2018-02-19T02:21:13.173Z,1016.79
2018-02-19T02:22:13.115Z,1016.81
2018-02-19T02:23:13.064Z,1016.77
2018-02-19T02:24:13.019Z,1016.81
2018-02-19T02:25:13.010Z,1016.77
2018-02-19T02:26:12.933Z,1016.76
2018-02-19T02:27:12.887Z,1016.75
2018-02-19T02:28:12.843Z,1016.77
2018-02-19T02:29:12.792Z,1016.75
2018-02-19T02:30:12.745Z,1016.72
2018-02-19T02:31:12.737Z,1016.73
2018-02-19T02:32:12.654Z,1016.65
2018-02-19T02:33:12.616Z,1016.69
2018-02-19T02:34:12.564Z,1016.66
2018-02-19T02:35:12.526Z,1016.66
2018-02-19T02:36:12.470Z,1016.63
2018-02-19T02:37:12.457Z,1016.64
2018-02-19T02:38:12.382Z,1016.64
2018-02-19T02:39:12.338Z,1016.63
2018-02-19T02:40:12.293Z,1016.64
2018-02-19T02:41:12.258Z,1016.64
2018-02-19T02:42:12.204Z,1016.66
2018-02-19T02:43:12.181Z,1016.60
2018-02-19T02:44:12.116Z,1016.62
2018-02-19T02:45:12.060Z,1016.63
2018-02-19T02:46:12.018Z,1016.59
2018-02-19T02:47:11.975Z,1016.60
2018-02-19T02:48:11.929Z,1016.58
2018-02-19T02:49:11.905Z,1016.52
2018-02-19T02:50:11.833Z,1016.55
2018-02-19T02:51:11.789Z,1016.48
2018-02-19T02:52:11.740Z,1016.51
2018-02-19T02:53:11.713Z,1016.48
2018-02-19T02:54:11.678Z,1016.47
2018-02-19T02:55:11.608Z,1016.43
2018-02-19T02:56:11.634Z,1016.44
2018-02-19T02:57:11.512Z,1016.45
2018-02-19T02:58:11.464Z,1016.45
2018-02-19T02:59:11.419Z,1016.44
2018-02-19T03:00:11.400Z,1016.40
2018-02-19T03:01:11.334Z,1016.44
2018-02-19T03:02:11.288Z,1016.43
2018-02-19T03:03:11.241Z,1016.45
2018-02-19T03:04:11.195Z,1016.42
2018-02-19T03:05:11.178Z,1016.44
2018-02-19T03:06:11.098Z,1016.44
2018-02-19T03:07:11.054Z,1016.46
2018-02-19T03:08:11.013Z,1016.42
2018-02-19T03:09:10.966Z,1016.43
2018-02-19T03:10:10.943Z,1016.44
2018-02-19T03:11:10.879Z,1016.41
2018-02-19T03:12:10.830Z,1016.46
2018-02-19T03:13:10.785Z,1016.43
2018-02-19T03:14:10.739Z,1016.40
2018-02-19T03:15:10.694Z,1016.43
2018-02-19T03:16:10.667Z,1016.41
2018-02-19T03:17:10.599Z,1016.37
2018-02-19T03:18:10.548Z,1016.41
2018-02-19T03:19:10.505Z,1016.40
2018-02-19T03:20:10.458Z,1016.41
2018-02-19T03:21:10.418Z,1016.43
2018-02-19T03:22:10.395Z,1016.42
2018-02-19T03:23:10.330Z,1016.43
2018-02-19T03:24:10.280Z,1016.42
2018-02-19T03:25:10.234Z,1016.40
2018-02-19T03:26:10.187Z,1016.40
2018-02-19T03:27:10.146Z,1016.42
2018-02-19T03:28:10.126Z,1016.42
2018-02-19T03:29:10.058Z,1016.42
2018-02-19T03:30:10.016Z,1016.39
2018-02-19T03:31:09.956Z,1016.43
2018-02-19T03:32:09.909Z,1016.41
2018-02-19T03:33:09.867Z,1016.43
2018-02-19T03:34:09.845Z,1016.41
2018-02-19T03:35:09.782Z,1016.49
2018-02-19T03:36:09.725Z,1016.47
2018-02-19T03:37:09.683Z,1016.50
2018-02-19T03:38:09.641Z,1016.52
2018-02-19T03:39:09.596Z,1016.54
2018-02-19T03:40:09.575Z,1016.55
2018-02-19T03:41:09.500Z,1016.58
2018-02-19T03:42:09.461Z,1016.60
2018-02-19T03:43:09.420Z,1016.56
2018-02-19T03:44:09.360Z,1016.59
2018-02-19T03:45:09.372Z,1016.60
2018-02-19T03:46:09.299Z,1016.58
2018-02-19T03:47:09.230Z,1016.58
2018-02-19T03:48:09.181Z,1016.58
2018-02-19T03:49:09.132Z,1016.53
2018-02-19T03:50:09.093Z,1016.51
2018-02-19T03:51:09.075Z,1016.50
2018-02-19T03:52:08.997Z,1016.49
2018-02-19T03:53:08.955Z,1016.44
2018-02-19T03:54:08.912Z,1016.44
2018-02-19T03:55:08.866Z,1016.42
2018-02-19T03:56:08.821Z,1016.43
2018-02-19T03:57:08.796Z,1016.40
2018-02-19T03:58:08.730Z,1016.37
2018-02-19T03:59:08.681Z,1016.41
2018-02-19T04:00:08.636Z,1016.41
2018-02-19T04:01:08.588Z,1016.40
2018-02-19T04:02:08.544Z,1016.40
2018-02-19T04:03:08.521Z,1016.39
2018-02-19T04:04:08.448Z,1016.39
2018-02-19T04:05:08.406Z,1016.36
2018-02-19T04:06:08.363Z,1016.36
2018-02-19T04:07:08.316Z,1016.39
2018-02-19T04:08:08.272Z,1016.34
2018-02-19T04:09:08.247Z,1016.35
2018-02-19T04:10:08.173Z,1016.38
2018-02-19T04:11:08.130Z,1016.33
2018-02-19T04:12:08.089Z,1016.35
2018-02-19T04:13:08.043Z,1016.31
2018-02-19T04:14:08.004Z,1016.28
2018-02-19T04:15:07.981Z,1016.27
2018-02-19T04:16:07.898Z,1016.25
2018-02-19T04:17:07.857Z,1016.27
2018-02-19T04:18:07.815Z,1016.26
2018-02-19T04:19:07.768Z,1016.19
2018-02-19T04:20:07.717Z,1016.19
2018-02-19T04:21:07.699Z,1016.15
2018-02-19T04:22:07.633Z,1016.16
2018-02-19T04:23:07.581Z,1016.11
2018-02-19T04:24:07.536Z,1016.10
2018-02-19T04:25:07.498Z,1016.04
2018-02-19T04:26:07.477Z,1016.04
2018-02-19T04:27:07.401Z,1016.04
2018-02-19T04:28:07.358Z,1016.06
2018-02-19T04:29:07.304Z,1016.01
2018-02-19T04:30:07.261Z,1016.03
2018-02-19T04:31:07.218Z,1016.01
2018-02-19T04:32:07.208Z,1016.00
2018-02-19T04:33:07.127Z,1015.98
2018-02-19T04:34:07.077Z,1015.95
2018-02-19T04:35:07.031Z,1015.98
2018-02-19T04:36:06.986Z,1015.93
2018-02-19T04:37:06.942Z,1015.87
2018-02-19T04:38:06.922Z,1015.85
2018-02-19T04:39:06.854Z,1015.83
2018-02-19T04:40:06.808Z,1015.81
2018-02-19T04:41:06.762Z,1015.78
2018-02-19T04:42:06.718Z,1015.78
2018-02-19T04:43:06.665Z,1015.76
2018-02-19T04:44:06.654Z,1015.78
2018-02-19T04:45:06.575Z,1015.74
2018-02-19T04:46:06.528Z,1015.72
2018-02-19T04:47:06.490Z,1015.65
2018-02-19T04:48:06.439Z,1015.62
2018-02-19T04:49:06.400Z,1015.71
2018-02-19T04:50:06.372Z,1015.55
2018-02-19T04:51:06.312Z,1015.59
2018-02-19T04:52:06.258Z,1015.58
2018-02-19T04:53:06.214Z,1015.58
2018-02-19T04:54:06.161Z,1015.55
2018-02-19T04:55:06.117Z,1015.53
2018-02-19T04:56:06.097Z,1015.48
2018-02-19T04:57:06.029Z,1015.54
2018-02-19T04:58:05.984Z,1015.53
2018-02-19T04:59:05.940Z,1015.46
2018-02-19T05:00:05.896Z,1015.50
2018-02-19T05:01:05.843Z,1015.50
2018-02-19T05:02:05.830Z,1015.50
2018-02-19T05:03:05.796Z,1015.51
2018-02-19T05:04:05.704Z,1015.51
2018-02-19T05:05:05.663Z,1015.49
2018-02-19T05:06:05.618Z,1015.48
2018-02-19T05:07:05.572Z,1015.49
2018-02-19T05:08:05.562Z,1015.50
2018-02-19T05:09:05.476Z,1015.49
2018-02-19T05:10:05.430Z,1015.52
2018-02-19T05:11:05.392Z,1015.60
2018-02-19T05:12:05.340Z,1015.55
2018-02-19T05:13:05.295Z,1015.64
2018-02-19T05:14:05.278Z,1015.58
2018-02-19T05:15:05.205Z,1015.58
2018-02-19T05:16:05.157Z,1015.60
2018-02-19T05:17:05.116Z,1015.61
2018-02-19T05:18:05.077Z,1015.63
2018-02-19T05:19:05.022Z,1015.59
2018-02-19T05:20:05.012Z,1015.61
2018-02-19T05:21:04.942Z,1015.55
2018-02-19T05:22:04.893Z,1015.61
2018-02-19T05:23:04.847Z,1015.54
2018-02-19T05:24:04.800Z,1015.55
2018-02-19T05:25:04.749Z,1015.55
2018-02-19T05:26:04.733Z,1015.55
2018-02-19T05:27:04.664Z,1015.54
2018-02-19T05:28:04.616Z,1015.59
2018-02-19T05:29:04.609Z,1015.59
2018-02-19T05:30:04.550Z,1015.59
2018-02-19T05:31:04.469Z,1015.61
2018-02-19T05:32:04.455Z,1015.57
2018-02-19T05:33:04.382Z,1015.59
2018-02-19T05:34:04.335Z,1015.58
2018-02-19T05:35:04.293Z,1015.61
2018-02-19T05:36:04.250Z,1015.53
2018-02-19T05:37:04.198Z,1015.55
2018-02-19T05:38:04.181Z,1015.55
2018-02-19T05:39:04.113Z,1015.61
2018-02-19T05:40:04.081Z,1015.59
2018-02-19T05:41:04.024Z,1015.66
2018-02-19T05:42:03.980Z,1015.60
2018-02-19T05:43:03.925Z,1015.59
2018-02-19T05:44:03.916Z,1015.56
2018-02-19T05:45:03.848Z,1015.64
2018-02-19T05:46:03.790Z,1015.52
2018-02-19T05:47:03.746Z,1015.60
2018-02-19T05:48:03.704Z,1015.59
2018-02-19T05:49:03.666Z,1015.60
2018-02-19T05:50:03.632Z,1015.57
2018-02-19T05:51:03.564Z,1015.49
2018-02-19T05:52:03.524Z,1015.50
2018-02-19T05:53:03.480Z,1015.48
2018-02-19T05:54:03.428Z,1015.45
2018-02-19T05:55:03.415Z,1015.46
2018-02-19T05:56:03.341Z,1015.44
2018-02-19T05:57:03.304Z,1015.48
2018-02-19T05:58:03.245Z,1015.45
2018-02-19T05:59:03.209Z,1015.50
2018-02-19T06:00:03.159Z,1015.53
2018-02-19T06:01:03.144Z,1015.49
2018-02-19T06:02:03.070Z,1015.51
2018-02-19T06:03:03.018Z,1015.51
2018-02-19T06:04:02.973Z,1015.55
2018-02-19T06:05:02.928Z,1015.53
2018-02-19T06:06:02.887Z,1015.52
2018-02-19T06:07:02.864Z,1015.54
2018-02-19T06:08:02.792Z,1015.49
2018-02-19T06:09:02.796Z,1015.50
2018-02-19T06:10:02.708Z,1015.51
2018-02-19T06:11:02.671Z,1015.48
2018-02-19T06:12:02.623Z,1015.48
2018-02-19T06:13:02.598Z,1015.50
2018-02-19T06:14:02.521Z,1015.45
2018-02-19T06:15:02.478Z,1015.50
2018-02-19T06:16:02.427Z,1015.50
2018-02-19T06:17:02.388Z,1015.50
2018-02-19T06:18:02.354Z,1015.50
2018-02-19T06:19:02.324Z,1015.52
2018-02-19T06:20:02.245Z,1015.51
2018-02-19T06:21:02.198Z,1015.51
2018-02-19T06:22:02.154Z,1015.52
2018-02-19T06:23:02.108Z,1015.55
2018-02-19T06:24:02.070Z,1015.50
2018-02-19T06:25:02.041Z,1015.50
2018-02-19T06:26:01.983Z,1015.54
2018-02-19T06:27:01.931Z,1015.53
2018-02-19T06:28:01.892Z,1015.55
2018-02-19T06:29:01.839Z,1015.56
2018-02-19T06:30:01.796Z,1015.60
2018-02-19T06:31:01.779Z,1015.59
2018-02-19T06:32:01.708Z,1015.60
2018-02-19T06:33:01.667Z,1015.59
2018-02-19T06:34:01.615Z,1015.60
2018-02-19T06:35:01.562Z,1015.62
2018-02-19T06:36:01.519Z,1015.62
2018-02-19T06:37:01.499Z,1015.63
2018-02-19T06:38:01.425Z,1015.64
2018-02-19T06:39:01.379Z,1015.60
2018-02-19T06:40:01.336Z,1015.58
2018-02-19T06:41:01.290Z,1015.59
2018-02-19T06:42:01.251Z,1015.63
2018-02-19T06:43:01.234Z,1015.62
2018-02-19T06:44:01.158Z,1015.61
2018-02-19T06:45:01.110Z,1015.62
2018-02-19T06:46:01.068Z,1015.57
2018-02-19T06:47:01.024Z,1015.62
2018-02-19T06:48:00.972Z,1015.68
2018-02-19T06:49:00.954Z,1015.64
2018-02-19T06:50:00.882Z,1015.59
2018-02-19T06:51:00.847Z,1015.61
2018-02-19T06:52:00.825Z,1015.56
2018-02-19T06:53:00.751Z,1015.57
2018-02-19T06:54:00.709Z,1015.56
2018-02-19T06:55:00.678Z,1015.62
2018-02-19T06:56:00.615Z,1015.59
2018-02-19T06:57:00.568Z,1015.60
2018-02-19T06:58:00.517Z,1015.61
2018-02-19T06:59:00.474Z,1015.59
2018-02-19T07:00:00.428Z,1015.58
2018-02-19T07:01:00.413Z,1015.56
2018-02-19T07:02:00.339Z,1015.62
2018-02-19T07:03:00.291Z,1015.59
2018-02-19T07:04:00.247Z,1015.62
2018-02-19T07:05:00.215Z,1015.63
2018-02-19T07:06:00.171Z,1015.60
2018-02-19T07:07:00.143Z,1015.62
2018-02-19T07:08:00.071Z,1015.62
2018-02-19T07:09:00.021Z,1015.61
2018-02-19T07:09:59.975Z,1015.57
2018-02-19T07:10:59.931Z,1015.54
2018-02-19T07:11:59.892Z,1015.61
2018-02-19T07:12:59.862Z,1015.57
2018-02-19T07:13:59.800Z,1015.59
2018-02-19T07:14:59.754Z,1015.53
2018-02-19T07:15:59.703Z,1015.53
2018-02-19T07:16:59.655Z,1015.54
2018-02-19T07:17:59.619Z,1015.54
2018-02-19T07:18:59.598Z,1015.52
2018-02-19T07:19:59.528Z,1015.57
2018-02-19T07:20:59.508Z,1015.57
2018-02-19T07:21:59.440Z,1015.61
2018-02-19T07:22:59.415Z,1015.65
2018-02-19T07:23:59.341Z,1015.65
2018-02-19T07:24:59.297Z,1015.67
2018-02-19T07:25:59.256Z,1015.65
2018-02-19T07:26:59.217Z,1015.70
2018-02-19T07:27:59.164Z,1015.75
2018-02-19T07:28:59.142Z,1015.75
2018-02-19T07:29:59.071Z,1015.65
2018-02-19T07:30:59.034Z,1015.68
2018-02-19T07:31:59.006Z,1015.63
2018-02-19T07:32:58.969Z,1015.68
2018-02-19T07:33:58.890Z,1015.64
2018-02-19T07:34:58.843Z,1015.63
2018-02-19T07:35:58.801Z,1015.65
2018-02-19T07:36:58.760Z,1015.63
2018-02-19T07:37:58.716Z,1015.60
2018-02-19T07:38:58.703Z,1015.61
2018-02-19T07:39:58.628Z,1015.63
2018-02-19T07:40:58.578Z,1015.59
2018-02-19T07:41:58.551Z,1015.57
2018-02-19T07:42:58.491Z,1015.55
2018-02-19T07:43:58.455Z,1015.51
2018-02-19T07:44:58.440Z,1015.53
2018-02-19T07:45:58.350Z,1015.52
2018-02-19T07:46:58.309Z,1015.51
2018-02-19T07:47:58.263Z,1015.55
2018-02-19T07:48:58.227Z,1015.47
2018-02-19T07:49:58.177Z,1015.49
2018-02-19T07:50:58.155Z,1015.48
2018-02-19T07:51:58.082Z,1015.45
2018-02-19T07:52:58.045Z,1015.49
2018-02-19T07:53:57.992Z,1015.40
2018-02-19T07:54:57.955Z,1015.46
2018-02-19T07:55:57.929Z,1015.44
2018-02-19T07:56:57.868Z,1015.43
2018-02-19T07:57:57.822Z,1015.42
2018-02-19T07:58:57.774Z,1015.39
2018-02-19T07:59:57.732Z,1015.33
2018-02-19T08:00:57.690Z,1015.38
2018-02-19T08:01:57.664Z,1015.33
2018-02-19T08:02:57.591Z,1015.37
2018-02-19T08:03:57.555Z,1015.35
2018-02-19T08:04:57.511Z,1015.34
2018-02-19T08:05:57.458Z,1015.33
2018-02-19T08:06:57.444Z,1015.32
2018-02-19T08:07:57.373Z,1015.35
2018-02-19T08:08:57.326Z,1015.40
2018-02-19T08:09:57.287Z,1015.43
2018-02-19T08:10:57.250Z,1015.38
2018-02-19T08:11:57.205Z,1015.31
2018-02-19T08:12:57.177Z,1015.38
2018-02-19T08:13:57.111Z,1015.40
2018-02-19T08:14:57.070Z,1015.38
2018-02-19T08:15:57.024Z,1015.40
2018-02-19T08:16:56.977Z,1015.36
2018-02-19T08:17:56.953Z,1015.36
2018-02-19T08:18:56.886Z,1015.37
2018-02-19T08:19:56.836Z,1015.34
2018-02-19T08:20:56.793Z,1015.35
2018-02-19T08:21:56.755Z,1015.34
2018-02-19T08:22:56.733Z,1015.34
2018-02-19T08:23:56.686Z,1015.30
2018-02-19T08:24:56.623Z,1015.29
2018-02-19T08:25:56.574Z,1015.33
2018-02-19T08:26:56.525Z,1015.34
2018-02-19T08:27:56.491Z,1015.29
2018-02-19T08:28:56.469Z,1015.28
2018-02-19T08:29:56.395Z,1015.26
2018-02-19T08:30:56.357Z,1015.26
2018-02-19T08:31:56.307Z,1015.24
2018-02-19T08:32:56.271Z,1015.28
2018-02-19T08:33:56.252Z,1015.25
2018-02-19T08:34:56.181Z,1015.22
2018-02-19T08:35:56.132Z,1015.21
2018-02-19T08:36:56.088Z,1015.21
2018-02-19T08:37:56.048Z,1015.22
2018-02-19T08:38:56.077Z,1015.23
2018-02-19T08:39:55.992Z,1015.17
2018-02-19T08:40:55.911Z,1015.11
2018-02-19T08:41:55.876Z,1015.10
2018-02-19T08:42:55.836Z,1015.11
2018-02-19T08:43:55.785Z,1015.12
2018-02-19T08:44:55.737Z,1015.18
2018-02-19T08:45:55.735Z,1015.13
2018-02-19T08:46:55.655Z,1015.19
2018-02-19T08:47:55.612Z,1015.19
2018-02-19T08:48:55.601Z,1015.16
2018-02-19T08:49:55.518Z,1015.16
2018-02-19T08:50:55.470Z,1015.20
2018-02-19T08:51:55.456Z,1015.14
2018-02-19T08:52:55.396Z,1015.16
2018-02-19T08:53:55.354Z,1015.21
2018-02-19T08:54:55.307Z,1015.22
2018-02-19T08:55:55.255Z,1015.25
2018-02-19T08:56:55.249Z,1015.16
2018-02-19T08:57:55.185Z,1015.18
2018-02-19T08:58:55.137Z,1015.20
2018-02-19T08:59:55.084Z,1015.15
2018-02-19T09:00:55.042Z,1015.12
2018-02-19T09:01:55.008Z,1015.11
2018-02-19T09:02:54.989Z,1015.14
2018-02-19T09:03:54.921Z,1015.08
2018-02-19T09:04:54.873Z,1015.06
2018-02-19T09:05:54.829Z,1014.95
2018-02-19T09:06:54.790Z,1014.96
2018-02-19T09:07:54.740Z,1015.01
2018-02-19T09:08:54.725Z,1015.02
2018-02-19T09:09:54.655Z,1014.97
2018-02-19T09:10:54.617Z,1015.04
2018-02-19T09:11:54.574Z,1015.04
2018-02-19T09:12:54.532Z,1015.03
2018-02-19T09:13:54.514Z,1015.01
2018-02-19T09:14:54.439Z,1015.02
2018-02-19T09:15:54.395Z,1015.04
2018-02-19T09:16:54.349Z,1015.03
2018-02-19T09:17:54.306Z,1015.03
2018-02-19T09:18:54.266Z,1015.11
2018-02-19T09:19:54.251Z,1015.11
2018-02-19T09:20:54.186Z,1015.17
2018-02-19T09:21:54.135Z,1015.19
2018-02-19T09:22:54.104Z,1015.08
2018-02-19T09:23:54.056Z,1015.07
2018-02-19T09:24:54.010Z,1015.09
2018-02-19T09:25:53.996Z,1015.13
2018-02-19T09:26:53.920Z,1015.06
2018-02-19T09:27:53.884Z,1015.32
2018-02-19T09:28:53.835Z,1015.11
2018-02-19T09:29:53.797Z,1015.16
2018-02-19T09:30:53.754Z,1015.08
2018-02-19T09:31:53.747Z,1015.11
2018-02-19T09:32:53.677Z,1015.10
2018-02-19T09:33:53.628Z,1015.15
2018-02-19T09:34:53.588Z,1015.13
2018-02-19T09:35:53.539Z,1015.14
2018-02-19T09:36:53.498Z,1015.06
2018-02-19T09:37:53.487Z,1015.05
2018-02-19T09:38:53.422Z,1015.33
2018-02-19T09:39:53.371Z,1015.10
2018-02-19T09:40:53.330Z,1015.00
2018-02-19T09:41:53.296Z,1015.03
2018-02-19T09:42:53.253Z,1015.03
2018-02-19T09:43:53.236Z,1015.05
2018-02-19T09:44:53.170Z,1015.08
2018-02-19T09:45:53.123Z,1015.11
2018-02-19T09:46:53.081Z,1015.05
2018-02-19T09:47:53.034Z,1015.13
2018-02-19T09:48:52.996Z,1015.08
2018-02-19T09:49:52.982Z,1015.04
2018-02-19T09:50:52.910Z,1015.06
2018-02-19T09:51:52.875Z,1015.10
2018-02-19T09:52:52.832Z,1015.05
2018-02-19T09:53:52.794Z,1015.11
2018-02-19T09:54:52.754Z,1015.03
2018-02-19T09:55:52.740Z,1015.14
2018-02-19T09:56:52.663Z,1015.09
2018-02-19T09:57:52.630Z,1015.08
2018-02-19T09:58:52.586Z,1015.16
2018-02-19T09:59:52.554Z,1015.27
2018-02-19T10:00:52.506Z,1015.17
2018-02-19T10:01:52.495Z,1015.17
2018-02-19T10:02:52.417Z,1015.14
2018-02-19T10:03:52.381Z,1015.10
2018-02-19T10:04:52.337Z,1015.06
2018-02-19T10:05:52.296Z,1015.00
2018-02-19T10:06:52.266Z,1014.99
2018-02-19T10:07:52.241Z,1015.01
2018-02-19T10:08:52.184Z,1014.97
2018-02-19T10:09:52.137Z,1015.00
2018-02-19T10:10:52.099Z,1015.10
2018-02-19T10:11:52.056Z,1014.99
2018-02-19T10:12:52.018Z,1014.97
2018-02-19T10:13:52.000Z,1014.98
2018-02-19T10:14:51.937Z,1015.02
2018-02-19T10:15:51.898Z,1015.03
2018-02-19T10:16:51.857Z,1014.99
2018-02-19T10:17:51.815Z,1014.98
2018-02-19T10:18:51.764Z,1014.99
2018-02-19T10:19:51.752Z,1015.00
2018-02-19T10:20:51.686Z,1014.97
2018-02-19T10:21:51.652Z,1014.96
2018-02-19T10:22:51.612Z,1014.98
2018-02-19T10:23:51.569Z,1014.96
2018-02-19T10:24:51.522Z,1015.01
2018-02-19T10:25:51.509Z,1014.94
2018-02-19T10:26:51.444Z,1015.00
2018-02-19T10:27:51.402Z,1014.90
2018-02-19T10:28:51.364Z,1014.98
2018-02-19T10:29:51.326Z,1014.91
2018-02-19T10:30:51.312Z,1014.88
2018-02-19T10:31:51.245Z,1015.02
2018-02-19T10:32:51.201Z,1014.90
2018-02-19T10:33:51.160Z,1014.85
2018-02-19T10:34:51.126Z,1014.85
2018-02-19T10:35:51.070Z,1014.87
2018-02-19T10:36:51.057Z,1014.90
2018-02-19T10:37:51.000Z,1014.90
2018-02-19T10:38:50.955Z,1014.87
2018-02-19T10:39:50.911Z,1014.86
2018-02-19T10:40:50.868Z,1014.88
2018-02-19T10:41:50.865Z,1014.87
2018-02-19T10:42:50.784Z,1014.81
2018-02-19T10:43:50.751Z,1014.81
2018-02-19T10:44:50.702Z,1014.83
2018-02-19T10:45:50.677Z,1014.83
2018-02-19T10:46:50.621Z,1014.83
2018-02-19T10:47:50.659Z,1014.80
2018-02-19T10:48:50.554Z,1014.79
2018-02-19T10:49:50.502Z,1014.84
2018-02-19T10:50:50.464Z,1014.75
2018-02-19T10:51:50.424Z,1014.80
2018-02-19T10:52:50.382Z,1014.80
2018-02-19T10:53:50.364Z,1014.83
2018-02-19T10:54:50.294Z,1014.81
2018-02-19T10:55:50.249Z,1014.84
2018-02-19T10:56:50.218Z,1014.79
2018-02-19T10:57:50.175Z,1014.73
2018-02-19T10:58:50.160Z,1014.76
2018-02-19T10:59:50.090Z,1014.80
2018-02-19T11:00:50.072Z,1014.87
2018-02-19T11:01:50.005Z,1014.86
2018-02-19T11:02:49.966Z,1014.90
2018-02-19T11:03:49.951Z,1014.86
2018-02-19T11:04:49.890Z,1014.85
2018-02-19T11:05:49.854Z,1014.92
2018-02-19T11:06:49.805Z,1015.01
2018-02-19T11:07:49.768Z,1014.96
2018-02-19T11:08:49.749Z,1015.01
2018-02-19T11:09:49.677Z,1014.92
2018-02-19T11:10:49.641Z,1014.91
2018-02-19T11:11:49.623Z,1014.98
2018-02-19T11:12:49.569Z,1014.94
2018-02-19T11:13:49.549Z,1014.90
2018-02-19T11:14:49.475Z,1014.94
2018-02-19T11:15:49.453Z,1014.98
2018-02-19T11:16:49.397Z,1014.87
2018-02-19T11:17:49.355Z,1014.93
2018-02-19T11:18:49.323Z,1015.01
2018-02-19T11:19:49.319Z,1014.91
2018-02-19T11:20:49.237Z,1014.93
2018-02-19T11:21:49.192Z,1014.94
2018-02-19T11:22:49.158Z,1014.90
2018-02-19T11:23:49.109Z,1014.99
2018-02-19T11:24:49.073Z,1015.29
2018-02-19T11:25:49.060Z,1015.21
2018-02-19T11:26:48.989Z,1015.01
2018-02-19T11:27:48.946Z,1015.27
2018-02-19T11:28:48.915Z,1015.06
2018-02-19T11:29:48.917Z,1014.82
2018-02-19T11:30:48.834Z,1014.82
2018-02-19T11:31:48.819Z,1014.82
2018-02-19T11:32:48.744Z,1014.78
2018-02-19T11:33:48.711Z,1014.79
2018-02-19T11:34:48.672Z,1014.73
2018-02-19T11:35:48.648Z,1014.61
2018-02-19T11:36:48.587Z,1014.61
2018-02-19T11:37:48.603Z,1014.61
2018-02-19T11:38:55.378Z,1014.62
2018-02-19T11:39:48.468Z,1014.61
2018-02-19T11:40:48.428Z,1014.52
2018-02-19T11:41:48.394Z,1014.48
2018-02-19T11:42:48.350Z,1014.49
2018-02-19T11:43:48.348Z,1014.60
2018-02-19T11:44:48.271Z,1014.49
2018-02-19T11:45:48.232Z,1014.50
2018-02-19T11:46:48.240Z,1014.41
2018-02-19T11:47:48.155Z,1014.46
2018-02-19T11:48:48.120Z,1014.49
2018-02-19T11:49:48.111Z,1014.68
2018-02-19T11:50:48.037Z,1014.62
2018-02-19T11:51:47.999Z,1014.75
2018-02-19T11:52:47.956Z,1014.61
2018-02-19T11:53:47.918Z,1014.47
2018-02-19T11:54:47.874Z,1014.44
2018-02-19T11:55:47.865Z,1014.67
2018-02-19T11:56:47.793Z,1014.41
2018-02-19T11:57:47.761Z,1014.37
2018-02-19T11:58:47.715Z,1014.33
2018-02-19T11:59:47.718Z,1014.31
2018-02-19T12:00:47.641Z,1014.36
2018-02-19T12:01:47.631Z,1014.50
2018-02-19T12:02:47.570Z,1014.45
2018-02-19T12:03:47.524Z,1014.41
2018-02-19T12:04:47.480Z,1014.58